Time;durP1;ratioP1;P1;durP2;ratioP2;P2;SDS_P1;SDS_P2;PMS_P1;PMS_P2;Temp;Humidity;BMP_temperature;BMP_pressure;BME280_temperature;BME280_humidity;BME280_pressure;Samples;Min_cycle;Max_cycle;Signal;HPM_P1;HPM_P2
2022/08/30 00:01:19;;;;;;;10.75;7.95;;;13.80;99.90;;;;;;5033650;28;20041;-65
2022/08/30 00:03:46;;;;;;;9.85;7.47;;;13.90;99.90;;;;;;5050694;28;20139;-65
2022/08/30 00:06:14;;;;;;;11.05;7.10;;;13.90;99.90;;;;;;5056341;28;20103;-64
2022/08/30 00:08:41;;;;;;;9.93;7.10;;;14.00;99.90;;;;;;5073514;28;20488;-65
2022/08/30 00:11:11;;;;;;;13.48;7.80;;;14.00;99.90;;;;;;5077884;28;20092;-65
2022/08/30 00:13:39;;;;;;;12.43;8.43;;;14.00;99.90;;;;;;5095911;28;20040;-65
2022/08/30 00:16:05;;;;;;;13.07;8.15;;;14.00;99.90;;;;;;5075377;28;20165;-65
2022/08/30 00:18:32;;;;;;;10.07;7.55;;;14.00;99.90;;;;;;5095509;28;20044;-65
2022/08/30 00:20:59;;;;;;;10.00;7.45;;;14.10;99.90;;;;;;5077342;28;20498;-65
2022/08/30 00:23:25;;;;;;;8.65;7.72;;;14.10;99.90;;;;;;5077376;28;20492;-65
2022/08/30 00:25:51;;;;;;;12.48;8.88;;;14.10;99.90;;;;;;5077257;28;20044;-64
2022/08/30 00:28:17;;;;;;;12.73;8.82;;;14.20;99.90;;;;;;5077095;28;20040;-65
2022/08/30 00:30:45;;;;;;;13.20;8.35;;;14.20;99.90;;;;;;5077098;28;20047;-65
2022/08/30 00:33:12;;;;;;;9.15;7.55;;;14.20;99.90;;;;;;5057124;28;20043;-65
2022/08/30 00:35:38;;;;;;;15.20;8.48;;;14.20;99.90;;;;;;5074852;28;20042;-65
2022/08/30 00:38:06;;;;;;;11.05;8.68;;;14.30;99.90;;;;;;5056946;28;20513;-65
2022/08/30 00:40:32;;;;;;;10.98;8.30;;;14.30;99.90;;;;;;5057082;28;20566;-65
2022/08/30 00:42:59;;;;;;;11.02;8.27;;;14.30;99.90;;;;;;5040350;28;20140;-65
2022/08/30 00:45:32;;;;;;;13.07;8.93;;;14.30;99.90;;;;;;5072504;28;20098;-65
2022/08/30 00:47:58;;;;;;;13.73;10.10;;;14.30;99.90;;;;;;5040227;28;20141;-65
2022/08/30 00:50:30;;;;;;;13.63;8.23;;;14.30;99.90;;;;;;5056625;28;20076;-65
2022/08/30 00:52:59;;;;;;;11.32;8.60;;;14.30;99.90;;;;;;5040171;28;20072;-65
2022/08/30 00:55:26;;;;;;;12.98;8.25;;;14.30;99.90;;;;;;5040423;28;20036;-65
2022/08/30 00:57:57;;;;;;;11.77;8.48;;;14.30;99.90;;;;;;5074560;28;20052;-65
2022/08/30 01:00:23;;;;;;;12.45;9.25;;;14.30;99.90;;;;;;5056589;28;20040;-65
2022/08/30 01:02:49;;;;;;;13.60;8.27;;;14.30;99.90;;;;;;5056398;28;20124;-65
2022/08/30 01:05:15;;;;;;;15.30;9.25;;;14.40;99.90;;;;;;5056769;28;20051;-65
2022/08/30 01:07:41;;;;;;;17.08;9.13;;;14.40;99.90;;;;;;5056431;28;20052;-65
2022/08/30 01:10:10;;;;;;;14.15;9.10;;;14.40;99.90;;;;;;5074402;28;20116;-65
2022/08/30 01:12:38;;;;;;;12.05;8.18;;;14.40;99.90;;;;;;5056581;28;20045;-65
2022/08/30 01:15:06;;;;;;;15.75;9.80;;;14.30;99.90;;;;;;5054165;28;20117;-65
2022/08/30 01:17:33;;;;;;;13.38;9.48;;;14.30;99.90;;;;;;5056329;28;20094;-65
2022/08/30 01:20:08;;;;;;;11.93;9.10;;;14.30;99.90;;;;;;5073673;28;20040;-65
2022/08/30 01:22:48;;;;;;;14.00;9.63;;;14.30;99.90;;;;;;5073366;28;20056;-65
2022/08/30 01:25:18;;;;;;;16.48;11.43;;;14.30;99.90;;;;;;5056430;28;20056;-65
2022/08/30 01:27:50;;;;;;;13.98;9.45;;;14.30;99.90;;;;;;5056420;28;20044;-65
2022/08/30 01:30:16;;;;;;;13.48;9.35;;;14.40;99.90;;;;;;5055803;28;20050;-65
2022/08/30 01:32:45;;;;;;;12.73;9.95;;;14.30;99.90;;;;;;5090563;28;20032;-65
2022/08/30 01:35:15;;;;;;;12.55;10.00;;;14.30;99.90;;;;;;5076230;28;20032;-65
2022/08/30 01:37:43;;;;;;;13.13;10.00;;;14.40;99.90;;;;;;5076107;28;20064;-65
2022/08/30 01:40:11;;;;;;;13.98;10.02;;;14.40;99.90;;;;;;5076201;28;20396;-65
2022/08/30 01:42:37;;;;;;;13.30;9.50;;;14.40;99.90;;;;;;5059059;28;20072;-65
2022/08/30 01:45:05;;;;;;;11.20;8.95;;;14.40;99.90;;;;;;5073446;28;20066;-65
2022/08/30 01:47:31;;;;;;;15.27;10.73;;;14.40;99.90;;;;;;5075828;28;20540;-65
2022/08/30 01:49:57;;;;;;;12.80;9.93;;;14.40;99.90;;;;;;5059069;28;20072;-65
2022/08/30 01:52:24;;;;;;;12.90;8.48;;;14.40;99.90;;;;;;5075545;28;20528;-65
2022/08/30 01:54:50;;;;;;;12.40;10.38;;;14.40;99.90;;;;;;5075715;28;20109;-65
2022/08/30 01:57:19;;;;;;;12.57;9.40;;;14.40;99.90;;;;;;5059125;28;20365;-65
2022/08/30 01:59:46;;;;;;;14.90;10.35;;;14.40;99.90;;;;;;5094018;28;20044;-65
2022/08/30 02:02:19;;;;;;;12.77;9.65;;;14.40;99.90;;;;;;5058896;28;20040;-65
2022/08/30 02:04:46;;;;;;;11.57;8.60;;;14.40;99.90;;;;;;5075713;28;20513;-65
2022/08/30 02:07:11;;;;;;;10.80;8.45;;;14.30;99.90;;;;;;5075310;28;20062;-65
2022/08/30 02:09:38;;;;;;;12.30;9.00;;;14.30;99.90;;;;;;5075160;28;20044;-65
2022/08/30 02:12:06;;;;;;;12.57;9.52;;;14.20;99.90;;;;;;5075596;28;20040;-65
2022/08/30 02:14:36;;;;;;;11.38;8.98;;;14.20;99.90;;;;;;5058556;28;20044;-65
2022/08/30 02:17:08;;;;;;;14.90;8.93;;;14.10;99.90;;;;;;5072700;28;20263;-65
2022/08/30 02:19:35;;;;;;;15.82;10.95;;;14.10;99.90;;;;;;5075116;28;20048;-65
2022/08/30 02:22:01;;;;;;;16.02;9.93;;;14.10;99.90;;;;;;5075267;28;20036;-66
2022/08/30 02:24:26;;;;;;;13.80;9.70;;;14.10;99.90;;;;;;5074996;28;20454;-65
2022/08/30 02:26:54;;;;;;;15.90;10.90;;;14.00;99.90;;;;;;5075210;28;20086;-65
2022/08/30 02:29:21;;;;;;;14.80;11.00;;;14.00;99.90;;;;;;5074828;28;20040;-65
2022/08/30 02:31:47;;;;;;;14.57;10.15;;;14.00;99.90;;;;;;5074679;28;20068;-65
2022/08/30 02:34:14;;;;;;;14.15;9.77;;;14.00;99.90;;;;;;5093762;28;20673;-65
2022/08/30 02:36:40;;;;;;;15.05;9.88;;;14.00;99.90;;;;;;5058950;28;20044;-65
2022/08/30 02:39:08;;;;;;;14.50;10.52;;;14.00;99.90;;;;;;5093984;28;20043;-65
2022/08/30 02:41:34;;;;;;;15.55;10.95;;;14.00;99.90;;;;;;5059226;28;20365;-65
2022/08/30 02:44:00;;;;;;;15.63;10.15;;;14.00;99.90;;;;;;5093698;28;20538;-65
2022/08/30 02:46:26;;;;;;;16.58;10.45;;;13.90;99.90;;;;;;5073506;28;20040;-65
2022/08/30 02:48:52;;;;;;;12.85;10.23;;;13.90;99.90;;;;;;5058854;28;20086;-65
2022/08/30 02:51:18;;;;;;;16.08;11.27;;;13.90;99.90;;;;;;5075697;28;20067;-65
2022/08/30 02:53:45;;;;;;;14.77;10.30;;;13.90;99.90;;;;;;5093610;28;20486;-65
2022/08/30 02:56:12;;;;;;;16.33;11.18;;;13.90;99.90;;;;;;5075419;28;20487;-65
2022/08/30 02:58:41;;;;;;;12.10;10.18;;;13.90;99.90;;;;;;5075626;28;20032;-65
2022/08/30 03:01:08;;;;;;;13.57;10.27;;;13.80;99.90;;;;;;5093349;28;20615;-65
2022/08/30 03:03:34;;;;;;;14.80;10.02;;;13.80;99.90;;;;;;5075549;28;20476;-65
2022/08/30 03:06:02;;;;;;;14.95;11.25;;;13.70;99.90;;;;;;5058531;28;20575;-65
2022/08/30 03:08:28;;;;;;;13.82;10.70;;;13.70;99.90;;;;;;5058292;28;20040;-65
2022/08/30 03:10:56;;;;;;;18.67;11.90;;;13.70;99.90;;;;;;5075179;28;20055;-65
2022/08/30 03:13:23;;;;;;;14.65;12.30;;;13.60;99.90;;;;;;5075113;28;20528;-65
2022/08/30 03:15:51;;;;;;;16.23;11.07;;;13.60;99.90;;;;;;5090879;28;20044;-65
2022/08/30 03:18:19;;;;;;;17.15;10.07;;;13.60;99.90;;;;;;5092957;28;20477;-65
2022/08/30 03:20:46;;;;;;;12.30;9.77;;;13.50;99.90;;;;;;5074993;28;20101;-65
2022/08/30 03:23:12;;;;;;;12.70;9.00;;;13.50;99.90;;;;;;5075130;28;20376;-65
2022/08/30 03:25:38;;;;;;;13.55;11.05;;;13.40;99.90;;;;;;5058207;28;20107;-65
2022/08/30 03:28:05;;;;;;;12.48;10.00;;;13.40;99.90;;;;;;5075079;28;20102;-65
2022/08/30 03:30:32;;;;;;;10.88;9.77;;;13.30;99.90;;;;;;5092869;28;20400;-65
2022/08/30 03:32:58;;;;;;;11.50;8.70;;;13.30;99.90;;;;;;5058017;28;20047;-65
2022/08/30 03:35:24;;;;;;;12.65;9.95;;;13.20;99.90;;;;;;5075171;28;20072;-65
2022/08/30 03:37:50;;;;;;;11.13;9.65;;;13.20;99.90;;;;;;5093015;28;20059;-65
2022/08/30 03:40:18;;;;;;;15.75;11.43;;;13.20;99.90;;;;;;5092652;28;20401;-65
2022/08/30 03:42:45;;;;;;;12.38;9.55;;;13.10;99.90;;;;;;5075008;28;20048;-65
2022/08/30 03:45:14;;;;;;;15.40;10.88;;;13.10;99.90;;;;;;5089871;28;20043;-65
2022/08/30 03:47:44;;;;;;;12.57;10.32;;;13.10;99.90;;;;;;5074658;28;20154;-65
2022/08/30 03:50:11;;;;;;;15.95;10.40;;;13.10;99.90;;;;;;5074692;28;20040;-65
2022/08/30 03:52:37;;;;;;;11.65;9.70;;;13.10;99.90;;;;;;5057937;28;20040;-65
2022/08/30 03:55:03;;;;;;;14.20;12.57;;;13.00;99.90;;;;;;5057854;28;20036;-66
2022/08/30 03:57:30;;;;;;;11.40;9.75;;;13.00;99.90;;;;;;5092772;28;20048;-66
2022/08/30 03:59:55;;;;;;;17.05;10.52;;;13.00;99.90;;;;;;5092697;28;20043;-65
2022/08/30 04:02:22;;;;;;;14.60;11.20;;;12.90;99.90;;;;;;5074605;28;20040;-65
2022/08/30 04:04:47;;;;;;;12.73;9.98;;;13.00;99.90;;;;;;5074402;28;20105;-65
2022/08/30 04:07:13;;;;;;;13.63;9.82;;;12.90;99.90;;;;;;5092550;28;20052;-65
2022/08/30 04:09:40;;;;;;;14.50;10.52;;;12.90;99.90;;;;;;5074486;28;20048;-65
2022/08/30 04:12:06;;;;;;;12.48;10.15;;;12.90;99.90;;;;;;5074448;28;20051;-66
2022/08/30 04:14:32;;;;;;;13.40;10.25;;;12.90;99.90;;;;;;5074554;28;20044;-66
2022/08/30 04:16:58;;;;;;;13.80;10.80;;;12.90;99.90;;;;;;5090158;28;20047;-66
2022/08/30 04:19:24;;;;;;;13.40;11.32;;;12.90;99.90;;;;;;5092776;28;20457;-65
2022/08/30 04:21:49;;;;;;;12.88;10.40;;;12.90;99.90;;;;;;5058026;28;20372;-66
2022/08/30 04:24:15;;;;;;;13.80;10.65;;;12.90;99.90;;;;;;5074534;28;20048;-66
2022/08/30 04:26:41;;;;;;;14.55;11.27;;;12.90;99.90;;;;;;5057873;28;20044;-66
2022/08/30 04:29:10;;;;;;;13.73;10.20;;;12.90;99.90;;;;;;5074167;28;20051;-65
2022/08/30 04:31:36;;;;;;;12.02;10.40;;;12.80;99.90;;;;;;5091958;28;20113;-66
2022/08/30 04:34:02;;;;;;;11.68;10.48;;;12.80;99.90;;;;;;5073378;28;20492;-66
2022/08/30 04:36:28;;;;;;;13.75;10.35;;;12.80;99.90;;;;;;5091544;28;20024;-66
2022/08/30 04:38:54;;;;;;;11.02;9.70;;;12.80;99.90;;;;;;5056606;28;20527;-66
2022/08/30 04:41:23;;;;;;;15.63;9.73;;;12.70;99.90;;;;;;5073401;28;20071;-66
2022/08/30 04:43:49;;;;;;;12.43;9.85;;;12.70;99.90;;;;;;5073501;28;20039;-66
2022/08/30 04:46:17;;;;;;;13.13;9.05;;;12.70;99.90;;;;;;5070690;28;20080;-66
2022/08/30 04:48:45;;;;;;;14.30;9.07;;;12.60;99.90;;;;;;5073187;28;20055;-66
2022/08/30 04:51:13;;;;;;;11.43;9.35;;;12.60;99.90;;;;;;5073486;28;20430;-66
2022/08/30 04:53:40;;;;;;;11.15;9.13;;;12.60;99.90;;;;;;5073191;28;20499;-66
2022/08/30 04:56:11;;;;;;;18.85;10.63;;;12.60;99.90;;;;;;5075363;28;20077;-66
2022/08/30 04:58:36;;;;;;;;;;;12.60;99.90;;;;;;5077298;28;20047;-66
2022/08/30 05:01:03;;;;;;;15.13;9.02;;;12.60;99.90;;;;;;5060031;28;19916;-66
2022/08/30 05:03:29;;;;;;;10.38;8.88;;;12.50;99.90;;;;;;5094687;28;20093;-66
2022/08/30 05:05:55;;;;;;;9.75;8.63;;;12.50;99.90;;;;;;5095518;28;20445;-66
2022/08/30 05:08:21;;;;;;;12.80;9.85;;;12.50;99.90;;;;;;5095449;28;20079;-66
2022/08/30 05:10:50;;;;;;;12.55;10.18;;;12.50;99.90;;;;;;5095428;28;20082;-66
2022/08/30 05:13:17;;;;;;;12.52;9.95;;;12.50;99.90;;;;;;5060754;28;20044;-66
2022/08/30 05:15:43;;;;;;;14.30;10.52;;;12.50;99.90;;;;;;5074823;28;20032;-66
2022/08/30 05:18:10;;;;;;;11.18;9.13;;;12.60;99.90;;;;;;5077291;28;20115;-66
2022/08/30 05:20:37;;;;;;;11.65;9.70;;;12.60;99.90;;;;;;5077195;28;20055;-66
2022/08/30 05:23:03;;;;;;;11.85;9.15;;;12.60;99.90;;;;;;5077301;28;20074;-67
2022/08/30 05:25:32;;;;;;;17.00;10.18;;;12.60;99.90;;;;;;5077297;28;20115;-66
2022/08/30 05:27:58;;;;;;;11.25;9.73;;;12.60;99.90;;;;;;5060285;28;20485;-66
2022/08/30 05:30:26;;;;;;;13.88;10.65;;;12.60;99.90;;;;;;5095253;28;20072;-66
2022/08/30 05:32:52;;;;;;;11.40;9.82;;;12.60;99.90;;;;;;5095046;28;20519;-66
2022/08/30 05:35:20;;;;;;;12.90;9.55;;;12.60;99.90;;;;;;5095048;28;20483;-66
2022/08/30 05:37:46;;;;;;;13.90;9.80;;;12.70;99.90;;;;;;5095008;28;20047;-66
2022/08/30 05:40:13;;;;;;;11.88;9.32;;;12.70;99.90;;;;;;5060406;28;20043;-66
2022/08/30 05:42:40;;;;;;;11.48;9.20;;;12.70;99.90;;;;;;5095143;28;20101;-66
2022/08/30 05:45:07;;;;;;;10.70;9.32;;;12.70;99.90;;;;;;5074516;28;20051;-66
2022/08/30 05:47:33;;;;;;;11.93;9.30;;;12.80;99.90;;;;;;5076704;28;20036;-66
2022/08/30 05:49:58;;;;;;;14.07;10.73;;;12.80;99.90;;;;;;5076677;28;20043;-66
2022/08/30 05:52:25;;;;;;;13.52;9.98;;;12.80;99.90;;;;;;5076680;28;20051;-66
2022/08/30 05:54:53;;;;;;;13.50;10.30;;;12.90;99.90;;;;;;5094679;28;20032;-65
2022/08/30 05:57:19;;;;;;;12.00;10.15;;;13.00;99.90;;;;;;5076835;28;20044;-65
2022/08/30 05:59:45;;;;;;;12.18;10.20;;;13.00;99.90;;;;;;5076552;28;20158;-65
2022/08/30 06:02:11;;;;;;;11.23;10.02;;;13.10;99.90;;;;;;5076731;28;20119;-65
2022/08/30 06:04:37;;;;;;;11.68;9.43;;;13.20;99.90;;;;;;5094364;28;20518;-65
2022/08/30 06:07:03;;;;;;;11.75;9.45;;;13.30;99.90;;;;;;5093515;28;20048;-65
2022/08/30 06:09:30;;;;;;;9.73;8.73;;;13.50;99.90;;;;;;5094177;28;20048;-65
2022/08/30 06:11:56;;;;;;;18.67;10.27;;;13.60;99.90;;;;;;5059659;28;20040;-65
2022/08/30 06:14:22;;;;;;;15.85;9.23;;;13.80;99.90;;;;;;5076296;28;20354;-65
2022/08/30 06:16:48;;;;;;;11.43;9.25;;;14.00;99.90;;;;;;5092175;28;20110;-65
2022/08/30 06:19:15;;;;;;;13.85;6.80;;;14.20;99.90;;;;;;5094220;28;20120;-65
2022/08/30 06:21:42;;;;;;;10.57;6.82;;;14.50;99.90;;;;;;5076172;28;20040;-65
2022/08/30 06:24:10;;;;;;;6.60;5.60;;;14.90;99.90;;;;;;5076267;28;20044;-66
2022/08/30 06:26:40;;;;;;;8.10;5.63;;;15.30;99.90;;;;;;5074474;28;20075;-66
2022/08/30 06:29:06;;;;;;;12.05;5.32;;;15.60;99.90;;;;;;5094040;28;20036;-65
2022/08/30 06:31:32;;;;;;;7.95;5.28;;;16.00;99.90;;;;;;5075622;28;20032;-66
2022/08/30 06:33:58;;;;;;;6.75;4.35;;;16.20;99.90;;;;;;5059083;28;20096;-65
2022/08/30 06:36:25;;;;;;;6.40;4.07;;;16.50;99.90;;;;;;5093668;28;20036;-66
2022/08/30 06:38:53;;;;;;;7.45;4.32;;;16.80;99.90;;;;;;5093531;28;20044;-65
2022/08/30 06:41:22;;;;;;;5.43;4.15;;;17.10;99.90;;;;;;5093882;28;20040;-65
2022/08/30 06:43:50;;;;;;;6.20;3.63;;;17.20;99.90;;;;;;5075273;28;20040;-65
2022/08/30 06:46:19;;;;;;;10.05;4.13;;;17.30;99.90;;;;;;5073127;28;20131;-65
2022/08/30 06:48:45;;;;;;;5.22;4.10;;;17.40;99.90;;;;;;5075353;28;20173;-65
2022/08/30 06:51:11;;;;;;;6.00;3.75;;;17.40;99.90;;;;;;5075178;28;20119;-65
2022/08/30 06:53:37;;;;;;;4.90;2.97;;;17.40;99.90;;;;;;5058550;28;20044;-66
2022/08/30 06:56:08;;;;;;;8.55;4.03;;;17.50;99.90;;;;;;5093606;28;20036;-65
2022/08/30 06:58:36;;;;;;;5.13;3.45;;;17.50;99.90;;;;;;5075128;28;20044;-65
2022/08/30 07:01:04;;;;;;;5.80;3.75;;;17.40;99.90;;;;;;5093233;28;20681;-66
2022/08/30 07:03:30;;;;;;;5.40;3.45;;;17.20;99.90;;;;;;5058713;28;20033;-65
2022/08/30 07:05:56;;;;;;;7.07;3.58;;;17.10;99.90;;;;;;5093430;28;20174;-66
2022/08/30 07:08:23;;;;;;;6.93;3.38;;;17.00;99.90;;;;;;5093424;28;20039;-65
2022/08/30 07:10:52;;;;;;;8.35;3.33;;;16.90;99.90;;;;;;5093280;28;20446;-65
2022/08/30 07:13:19;;;;;;;5.90;3.40;;;16.90;99.90;;;;;;5058789;28;20105;-65
2022/08/30 07:15:46;;;;;;;4.40;2.95;;;16.80;99.90;;;;;;5072886;28;20052;-66
2022/08/30 07:21:04;;;;;;;3.63;2.42;;;16.80;99.90;;;;;;5074964;28;20504;-65
2022/08/30 07:23:30;;;;;;;5.68;2.80;;;16.80;99.90;;;;;;5093050;28;20050;-66
2022/08/30 07:25:56;;;;;;;5.07;2.70;;;16.90;99.90;;;;;;5075242;28;20048;-66
2022/08/30 07:28:22;;;;;;;4.93;2.70;;;16.90;99.90;;;;;;5092916;28;20512;-67
2022/08/30 07:30:48;;;;;;;4.13;2.20;;;16.90;99.90;;;;;;5074610;28;20377;-65
2022/08/30 07:33:13;;;;;;;4.18;2.35;;;17.00;99.90;;;;;;5072756;28;20039;-66
2022/08/30 07:35:39;;;;;;;5.38;2.85;;;17.00;99.90;;;;;;5092673;28;20115;-67
2022/08/30 07:38:05;;;;;;;5.65;2.15;;;17.10;99.90;;;;;;5075010;28;20125;-65
2022/08/30 07:40:31;;;;;;;5.18;2.80;;;17.20;99.90;;;;;;5057824;28;20476;-67
2022/08/30 07:43:00;;;;;;;13.52;2.90;;;17.20;99.90;;;;;;5074796;28;20050;-69
2022/08/30 07:45:26;;;;;;;4.53;2.03;;;17.30;99.90;;;;;;5055609;28;20673;-68
2022/08/30 07:47:52;;;;;;;4.05;2.00;;;17.40;99.90;;;;;;5074760;28;20040;-67
2022/08/30 07:50:18;;;;;;;4.70;2.00;;;17.50;99.90;;;;;;5057543;28;20043;-67
2022/08/30 07:52:44;;;;;;;4.25;1.98;;;17.60;99.90;;;;;;5073830;28;20115;-67
2022/08/30 07:55:10;;;;;;;4.72;2.00;;;17.70;99.90;;;;;;5073968;28;20488;-68
2022/08/30 07:57:36;;;;;;;6.03;2.20;;;17.80;99.90;;;;;;5074334;28;20511;-67
2022/08/30 08:00:03;;;;;;;3.58;1.30;;;18.10;99.90;;;;;;5091865;28;20070;-67
2022/08/30 08:02:29;;;;;;;4.47;1.60;;;18.40;99.90;;;;;;5056789;28;20051;-68
2022/08/30 08:04:55;;;;;;;5.40;1.30;;;18.70;99.90;;;;;;5091971;28;20040;-67
2022/08/30 08:07:21;;;;;;;2.50;1.35;;;19.00;99.90;;;;;;5070085;28;20075;-67
2022/08/30 08:09:46;;;;;;;3.40;1.15;;;19.40;99.90;;;;;;5070153;28;20048;-67
2022/08/30 08:12:12;;;;;;;4.88;1.52;;;19.60;99.90;;;;;;5071515;28;20037;-69
2022/08/30 08:14:40;;;;;;;3.80;1.38;;;19.90;99.90;;;;;;5070426;28;20460;-68
2022/08/30 08:17:06;;;;;;;3.33;1.40;;;20.00;99.90;;;;;;5067648;28;20451;-68
2022/08/30 08:19:32;;;;;;;3.08;1.25;;;20.30;99.90;;;;;;5069996;28;20501;-68
2022/08/30 08:21:59;;;;;;;3.60;1.58;;;20.60;99.90;;;;;;5069794;28;20041;-68
2022/08/30 08:24:28;;;;;;;3.75;1.33;;;20.90;99.90;;;;;;5070862;28;20048;-67
2022/08/30 08:26:55;;;;;;;5.55;1.20;;;21.20;99.90;;;;;;5053278;28;20037;-68
2022/08/30 08:29:21;;;;;;;4.82;1.30;;;21.50;99.90;;;;;;5070642;28;20087;-68
2022/08/30 08:31:48;;;;;;;4.55;1.40;;;21.60;99.90;;;;;;5074221;28;20480;-68
2022/08/30 08:34:14;;;;;;;4.03;1.40;;;21.80;99.90;;;;;;5058147;28;20041;-68
2022/08/30 08:36:40;;;;;;;6.70;1.80;;;22.10;99.90;;;;;;5074680;28;20039;-70
2022/08/30 08:39:07;;;;;;;3.22;1.15;;;22.30;99.90;;;;;;5074681;28;20489;-68
2022/08/30 08:41:52;;;;;;;2.67;1.30;;;22.60;99.90;;;;;;5058276;28;20487;-68
2022/08/30 08:44:39;;;;;;;2.45;1.13;;;22.80;99.90;;;;;;5057977;28;20040;-67
2022/08/30 08:47:23;;;;;;;3.67;1.40;;;22.80;98.90;;;;;;5072588;28;20123;-68
2022/08/30 08:49:54;;;;;;;2.33;1.05;;;23.00;98.70;;;;;;5057749;28;20056;-68
2022/08/30 08:55:22;;;;;;;3.50;1.17;;;23.40;98.40;;;;;;5074348;28;20072;-68
2022/08/30 08:57:48;;;;;;;3.30;1.10;;;23.60;97.20;;;;;;5074781;28;20041;-65
2022/08/30 09:00:14;;;;;;;3.45;1.20;;;23.70;97.10;;;;;;5074368;28;20382;-65
2022/08/30 09:02:55;;;;;;;7.63;1.33;;;24.00;97.90;;;;;;5074215;28;20047;-65
2022/08/30 09:05:24;;;;;;;3.63;1.40;;;24.20;97.40;;;;;;5075803;28;20142;-64
2022/08/30 09:08:01;;;;;;;4.30;1.40;;;24.40;95.90;;;;;;5057385;28;20131;-66
2022/08/30 09:10:30;;;;;;;28.98;2.00;;;24.70;94.20;;;;;;5074175;28;20396;-65
2022/08/30 09:12:56;;;;;;;4.57;1.30;;;24.80;94.00;;;;;;5074412;28;20397;-64
2022/08/30 09:15:26;;;;;;;2.45;1.33;;;24.90;93.70;;;;;;5071728;28;20037;-65
2022/08/30 09:18:02;;;;;;;5.50;1.40;;;24.80;91.70;;;;;;5074016;28;20070;-67
2022/08/30 09:20:32;;;;;;;3.28;1.38;;;24.50;90.80;;;;;;5074201;28;20397;-65
2022/08/30 09:23:13;;;;;;;12.48;1.60;;;24.00;91.00;;;;;;5074195;28;20037;-65
2022/08/30 09:26:02;;;;;;;4.15;1.33;;;24.00;90.70;;;;;;5073769;28;20127;-65
2022/08/30 09:28:49;;;;;;;3.17;1.45;;;24.30;91.20;;;;;;5074970;28;20047;-65
2022/08/30 09:31:31;;;;;;;4.25;1.27;;;24.70;91.30;;;;;;5074019;28;20124;-66
2022/08/30 09:34:06;;;;;;;4.35;1.45;;;25.10;89.10;;;;;;5074016;28;20427;-65
2022/08/30 09:36:50;;;;;;;2.25;1.20;;;25.40;88.60;;;;;;5073761;28;20047;-65
2022/08/30 09:39:36;;;;;;;4.57;1.60;;;25.40;88.70;;;;;;5073934;28;20082;-65
2022/08/30 09:42:25;;;;;;;3.70;1.55;;;25.30;87.10;;;;;;5072537;28;20036;-65
2022/08/30 09:44:52;;;;;;;3.58;1.20;;;25.10;88.10;;;;;;5073342;28;20055;-66
2022/08/30 09:47:28;;;;;;;4.40;1.30;;;25.00;90.00;;;;;;5072254;28;20037;-65
2022/08/30 09:50:14;;;;;;;6.10;1.20;;;25.40;90.50;;;;;;5073505;28;20063;-65
2022/08/30 09:53:08;;;;;;;4.68;1.30;;;25.90;90.10;;;;;;5074486;28;20114;-66
2022/08/30 09:55:48;;;;;;;3.58;1.13;;;26.30;86.10;;;;;;5073657;28;20046;-66
2022/08/30 09:58:44;;;;;;;2.17;0.90;;;26.60;84.20;;;;;;5073571;28;20128;-66
2022/08/30 10:01:23;;;;;;;4.13;1.00;;;26.70;83.70;;;;;;5073107;28;20072;-65
2022/08/30 10:03:53;;;;;;;2.60;0.90;;;26.90;80.90;;;;;;5056867;28;20123;-65
2022/08/30 10:06:50;;;;;;;2.83;1.35;;;26.90;78.60;;;;;;5077300;28;20081;-65
2022/08/30 10:09:44;;;;;;;4.70;1.25;;;26.70;79.00;;;;;;5052917;28;20086;-65
2022/08/30 10:12:19;;;;;;;1.75;0.80;;;26.70;77.50;;;;;;5094116;28;20496;-65
2022/08/30 10:14:50;;;;;;;6.35;1.40;;;26.80;77.60;;;;;;5094473;28;20032;-65
2022/08/30 10:17:37;;;;;;;1.65;0.90;;;26.90;77.30;;;;;;5074441;28;20044;-66
2022/08/30 10:20:16;;;;;;;2.55;1.05;;;27.20;75.70;;;;;;5075518;28;20063;-65
2022/08/30 10:22:54;;;;;;;3.38;1.08;;;27.30;73.50;;;;;;5093318;28;20493;-65
2022/08/30 10:25:29;;;;;;;2.10;1.10;;;27.40;74.20;;;;;;5093685;28;20126;-66
2022/08/30 10:28:17;;;;;;;10.38;1.23;;;27.70;72.70;;;;;;5094137;28;20068;-66
2022/08/30 10:30:51;;;;;;;1.95;0.90;;;27.90;74.50;;;;;;5075925;28;20074;-65
2022/08/30 10:33:23;;;;;;;2.03;0.90;;;28.20;72.70;;;;;;5094008;28;20042;-66
2022/08/30 10:36:03;;;;;;;4.93;0.90;;;28.20;70.30;;;;;;5076139;28;20118;-66
2022/08/30 10:38:36;;;;;;;3.03;1.05;;;28.20;69.60;;;;;;5058456;28;20181;-65
2022/08/30 10:41:26;;;;;;;4.18;1.10;;;28.30;69.00;;;;;;5058087;28;20564;-66
2022/08/30 10:44:21;;;;;;;1.90;1.00;;;28.40;67.10;;;;;;5093284;28;20495;-66
2022/08/30 10:47:22;;;;;;;2.17;1.08;;;28.20;69.20;;;;;;5073360;28;20040;-66
2022/08/30 10:50:02;;;;;;;19.52;2.95;;;27.60;68.60;;;;;;5043814;28;20051;-65
2022/08/30 10:52:42;;;;;;;2.25;1.02;;;27.20;68.30;;;;;;5074459;28;20123;-65
2022/08/30 10:55:27;;;;;;;4.88;1.20;;;27.20;68.30;;;;;;5074917;28;20038;-65
2022/08/30 10:58:05;;;;;;;6.13;0.90;;;27.20;68.50;;;;;;5092645;28;20043;-65
2022/08/30 11:01:02;;;;;;;1.63;0.90;;;27.40;68.10;;;;;;5092723;28;20119;-65
2022/08/30 11:03:27;;;;;;;3.30;1.25;;;27.60;69.50;;;;;;5074414;28;20496;-66
2022/08/30 11:06:31;;;;;;;4.82;1.08;;;27.70;66.40;;;;;;5092484;28;20044;-66
2022/08/30 11:09:11;;;;;;;2.05;0.88;;;27.70;66.10;;;;;;5047471;28;20055;-65
2022/08/30 11:11:50;;;;;;;2.85;1.10;;;27.70;59.80;;;;;;5048893;28;20056;-65
2022/08/30 11:14:18;;;;;;;2.60;0.93;;;27.50;61.40;;;;;;5051534;28;20045;-66
2022/08/30 11:16:48;;;;;;;2.05;0.90;;;27.30;60.50;;;;;;5048443;28;20124;-66
2022/08/30 11:19:19;;;;;;;2.42;0.88;;;27.30;64.10;;;;;;5052044;28;20079;-67
2022/08/30 11:21:46;;;;;;;1.67;0.88;;;27.50;65.20;;;;;;5052241;28;20381;-66
2022/08/30 11:24:21;;;;;;;2.60;1.38;;;27.70;66.00;;;;;;5051817;28;20041;-66
2022/08/30 11:26:47;;;;;;;1.75;0.85;;;27.80;64.70;;;;;;5052080;28;20052;-66
2022/08/30 11:29:48;;;;;;;2.90;1.10;;;27.60;63.50;;;;;;5051706;28;20411;-66
2022/08/30 11:32:16;;;;;;;2.50;1.00;;;27.40;62.70;;;;;;5050466;28;20076;-66
2022/08/30 11:34:47;;;;;;;2.10;0.90;;;27.30;63.70;;;;;;5050550;28;20051;-66
2022/08/30 11:37:37;;;;;;;2.40;0.70;;;27.20;63.30;;;;;;5051662;28;20041;-65
2022/08/30 11:40:21;;;;;;;3.85;0.90;;;27.20;64.70;;;;;;5051700;28;20045;-66
2022/08/30 11:42:52;;;;;;;2.25;0.90;;;27.30;63.40;;;;;;5050765;28;20037;-66
2022/08/30 11:45:21;;;;;;;1.77;1.00;;;27.20;62.20;;;;;;5049155;28;20041;-66
2022/08/30 11:47:57;;;;;;;;;;;27.00;62.70;;;;;;5050989;28;20451;-66
2022/08/30 11:50:45;;;;;;;2.20;0.85;;;26.90;64.20;;;;;;5051950;28;19955;-67
2022/08/30 11:53:34;;;;;;;1.98;0.88;;;26.80;63.30;;;;;;5050625;28;20045;-66
2022/08/30 11:56:09;;;;;;;3.55;0.88;;;26.60;60.30;;;;;;5048314;28;20064;-66
2022/08/30 11:58:46;;;;;;;1.85;0.85;;;26.30;62.60;;;;;;5052526;28;20080;-67
2022/08/30 12:01:17;;;;;;;2.15;0.88;;;26.10;64.50;;;;;;5052517;28;20076;-65
2022/08/30 12:03:52;;;;;;;3.92;0.93;;;25.90;65.10;;;;;;5050693;28;20048;-67
2022/08/30 12:06:38;;;;;;;2.75;1.20;;;26.00;64.60;;;;;;5059190;28;20515;-66
2022/08/30 12:09:04;;;;;;;3.38;0.85;;;26.00;64.70;;;;;;5078084;28;20043;-66
2022/08/30 12:11:33;;;;;;;2.10;1.00;;;25.70;64.00;;;;;;5096804;28;20515;-65
2022/08/30 12:14:01;;;;;;;2.50;1.08;;;25.50;64.10;;;;;;5058790;28;20354;-65
2022/08/30 12:18:26;;;;;;;6.18;1.10;;;25.40;65.30;;;;;;5056187;28;20052;-65
2022/08/30 12:19:30;;;;;;;1.90;0.88;;;25.40;65.30;;;;;;5058186;28;20469;-65
2022/08/30 12:22:04;;;;;;;1.98;0.75;;;25.20;64.60;;;;;;5058336;28;20047;-65
2022/08/30 12:24:39;;;;;;;2.58;1.00;;;25.00;64.60;;;;;;5058453;28;20499;-65
2022/08/30 12:27:40;;;;;;;2.20;1.05;;;24.90;66.20;;;;;;5058114;28;20396;-65
2022/08/30 12:30:07;;;;;;;4.50;1.10;;;24.80;66.00;;;;;;4978141;28;20079;-65
2022/08/30 12:32:46;;;;;;;1.95;0.90;;;24.80;66.30;;;;;;5042784;28;20048;-65
2022/08/30 12:35:22;;;;;;;2.22;0.82;;;24.70;66.20;;;;;;5075960;28;20040;-65
2022/08/30 12:38:04;;;;;;;2.95;1.10;;;24.50;64.70;;;;;;5058248;28;20063;-65
2022/08/30 12:40:33;;;;;;;1.52;0.82;;;24.30;66.20;;;;;;5058228;28;20041;-65
2022/08/30 12:43:16;;;;;;;3.13;1.13;;;24.30;66.60;;;;;;5058223;28;20049;-65
2022/08/30 12:45:45;;;;;;;2.35;1.10;;;24.40;67.20;;;;;;5038864;28;20528;-65
2022/08/30 12:48:14;;;;;;;;;;;24.40;67.30;;;;;;5077524;28;20047;-65
2022/08/30 12:50:52;;;;;;;3.38;1.00;;;24.40;68.20;;;;;;5095912;28;20357;-66
2022/08/30 12:53:26;;;;;;;5.63;0.90;;;24.40;67.30;;;;;;5096118;28;20388;-67
2022/08/30 12:56:03;;;;;;;3.35;1.00;;;24.30;65.60;;;;;;5060967;28;20535;-65
2022/08/30 12:58:39;;;;;;;2.17;0.70;;;24.30;64.60;;;;;;5061068;28;20086;-65
2022/08/30 13:01:26;;;;;;;2.70;1.00;;;24.10;64.10;;;;;;5077910;28;20086;-65
2022/08/30 13:03:55;;;;;;;7.15;1.20;;;24.00;64.60;;;;;;5061085;28;20139;-66